createdAt,value
2019-01-11T00:01:50.460Z,3.30
2019-01-11T00:04:30.766Z,3.80
2019-01-11T00:07:11.588Z,3.80
2019-01-11T00:09:51.669Z,4.20
2019-01-11T00:12:32.209Z,3.40
2019-01-11T00:15:14.720Z,3.90
2019-01-11T00:17:54.566Z,3.80
2019-01-11T00:20:34.891Z,3.60
2019-01-11T00:23:14.639Z,3.60
2019-01-11T00:25:55.103Z,3.50
2019-01-11T00:28:34.503Z,3.50
2019-01-11T00:33:55.462Z,3.30
2019-01-11T00:36:35.842Z,3.40
2019-01-11T00:39:15.848Z,3.20
2019-01-11T00:41:55.414Z,3.10
2019-01-11T00:44:35.654Z,3.10
2019-01-11T00:47:15.611Z,2.80
2019-01-11T00:49:55.485Z,3.00
2019-01-11T00:52:35.798Z,3.10
2019-01-11T00:55:16.268Z,3.00
2019-01-11T00:57:55.922Z,3.00
2019-01-11T01:00:36.020Z,2.70
2019-01-11T01:03:16.004Z,3.10
2019-01-11T01:05:56.235Z,3.30
2019-01-11T01:08:41.067Z,3.20
2019-01-11T01:11:08.543Z,3.10
2019-01-11T01:13:55.469Z,3.60
2019-01-11T01:16:35.402Z,3.30
2019-01-11T01:19:20.037Z,3.30
2019-01-11T01:21:56.880Z,3.10
2019-01-11T01:24:36.937Z,2.50
2019-01-11T01:27:16.919Z,3.20
2019-01-11T01:29:57.106Z,3.10
2019-01-11T01:32:37.148Z,3.40
2019-01-11T01:35:17.231Z,3.20
2019-01-11T01:37:57.022Z,3.00
2019-01-11T01:40:37.906Z,2.90
2019-01-11T01:43:19.810Z,2.90
2019-01-11T01:45:48.054Z,3.00
2019-01-11T01:48:36.965Z,3.30
2019-01-11T01:51:18.563Z,2.80
2019-01-11T01:53:59.700Z,3.30
2019-01-11T01:56:40.749Z,2.80
2019-01-11T01:59:09.615Z,2.80
2019-01-11T02:01:58.238Z,3.30
2019-01-11T02:04:39.972Z,2.60
2019-01-11T02:07:21.418Z,3.00
2019-01-11T02:10:02.149Z,2.90
2019-01-11T02:12:43.447Z,2.80
2019-01-11T02:15:26.726Z,2.90
2019-01-11T02:18:07.759Z,3.00
2019-01-11T02:20:48.759Z,2.80
2019-01-11T02:23:29.718Z,2.90
2019-01-11T02:25:58.231Z,2.80
2019-01-11T02:28:46.851Z,2.80
2019-01-11T02:31:29.034Z,3.30
2019-01-11T02:34:09.916Z,2.60
2019-01-11T02:36:51.009Z,3.00
2019-01-11T02:39:31.211Z,2.70
2019-01-11T02:42:11.103Z,3.00
2019-01-11T02:44:52.371Z,2.70
2019-01-11T02:47:33.476Z,2.90
2019-01-11T02:50:14.710Z,3.40
2019-01-11T02:52:55.807Z,3.00
2019-01-11T02:55:36.746Z,2.80
2019-01-11T02:58:17.825Z,3.00
2019-01-11T03:00:58.771Z,3.20
2019-01-11T03:03:39.891Z,3.00
2019-01-11T03:06:21.071Z,3.00
2019-01-11T03:08:48.966Z,3.10
2019-01-11T03:11:37.589Z,3.00
2019-01-11T03:14:19.386Z,3.00
2019-01-11T03:17:00.535Z,3.00
2019-01-11T03:19:47.778Z,3.00
2019-01-11T03:22:23.610Z,3.00
2019-01-11T03:25:04.646Z,3.00
2019-01-11T03:27:45.663Z,3.10
2019-01-11T03:30:26.890Z,3.00
2019-01-11T03:33:07.811Z,3.10
2019-01-11T03:35:50.914Z,3.10
2019-01-11T03:38:32.397Z,2.70
2019-01-11T03:41:13.055Z,3.00
2019-01-11T03:43:54.522Z,3.10
2019-01-11T03:46:35.518Z,2.90
2019-01-11T03:49:16.480Z,2.60
2019-01-11T03:51:57.589Z,3.00
2019-01-11T03:54:38.611Z,3.00
2019-01-11T03:57:19.423Z,3.20
2019-01-11T04:00:00.303Z,3.40
2019-01-11T04:02:41.738Z,3.40
2019-01-11T04:05:22.163Z,3.30
2019-01-11T04:08:03.523Z,3.40
2019-01-11T04:10:44.478Z,3.30
2019-01-11T04:13:30.423Z,3.60
2019-01-11T04:16:09.604Z,3.20
2019-01-11T04:18:56.563Z,3.20
2019-01-11T04:21:41.019Z,3.20
2019-01-11T04:24:22.458Z,3.30
2019-01-11T04:27:02.620Z,3.40
2019-01-11T04:29:43.540Z,3.50
2019-01-11T04:32:25.186Z,3.50
2019-01-11T04:35:16.253Z,3.50
2019-01-11T04:38:03.566Z,3.50
2019-01-11T04:40:44.537Z,3.30
2019-01-11T04:43:25.351Z,3.70
2019-01-11T04:46:07.986Z,3.70
2019-01-11T04:48:48.598Z,3.80
2019-01-11T04:54:09.468Z,3.70
2019-01-11T04:56:49.488Z,3.60
2019-01-11T04:59:30.328Z,3.90
2019-01-11T05:02:10.340Z,3.20
2019-01-11T05:04:50.675Z,3.60
2019-01-11T05:07:30.368Z,3.90
2019-01-11T05:10:10.759Z,3.60
2019-01-11T05:12:50.832Z,3.70
2019-01-11T05:15:30.609Z,3.30
2019-01-11T05:18:11.223Z,3.60
2019-01-11T05:20:51.160Z,3.50
2019-01-11T05:23:31.271Z,3.80
2019-01-11T05:26:11.427Z,3.40
2019-01-11T05:28:51.647Z,3.70
2019-01-11T05:31:32.372Z,3.30
2019-01-11T05:34:13.708Z,3.80
2019-01-11T05:36:54.291Z,3.60
2019-01-11T05:39:35.815Z,3.90
2019-01-11T05:44:57.904Z,3.60
2019-01-11T05:47:25.967Z,3.30
2019-01-11T05:53:21.982Z,3.60
2019-01-11T05:56:06.956Z,3.60
2019-01-11T05:58:55.807Z,3.60
2019-01-11T06:01:36.176Z,3.50
2019-01-11T06:07:49.842Z,3.70
2019-01-11T06:10:29.877Z,3.70
2019-01-11T06:13:09.602Z,4.00
2019-01-11T06:15:50.048Z,3.70
2019-01-11T06:18:30.131Z,3.60
2019-01-11T06:21:09.934Z,4.00
2019-01-11T06:23:49.971Z,3.90
2019-01-11T06:26:29.952Z,3.80
2019-01-11T06:29:10.682Z,4.10
2019-01-11T06:31:55.472Z,3.70
2019-01-11T06:34:35.863Z,4.00
2019-01-11T06:37:15.980Z,3.80
2019-01-11T06:39:55.974Z,3.80
2019-01-11T06:42:36.141Z,3.40
2019-01-11T06:45:16.136Z,3.80
2019-01-11T06:50:48.062Z,3.80
2019-01-11T06:53:36.656Z,3.70
2019-01-11T06:56:18.512Z,3.90
2019-01-11T06:58:59.477Z,3.50
2019-01-11T07:01:40.818Z,4.00
2019-01-11T07:04:21.343Z,3.70
2019-01-11T07:07:02.510Z,3.80
2019-01-11T07:09:43.835Z,3.80
2019-01-11T07:12:25.011Z,3.50
2019-01-11T07:15:06.611Z,4.00
2019-01-11T07:17:47.512Z,3.80
2019-01-11T07:20:28.608Z,3.80
2019-01-11T07:23:09.329Z,3.60
2019-01-11T07:25:50.357Z,4.00
2019-01-11T07:28:31.488Z,3.90
2019-01-11T07:31:23.127Z,3.80
2019-01-11T07:34:04.480Z,3.80
2019-01-11T07:36:51.455Z,4.30
2019-01-11T07:39:33.444Z,3.90
2019-01-11T07:42:14.562Z,3.80
2019-01-11T07:44:57.179Z,4.10
2019-01-11T07:47:38.323Z,4.00
2019-01-11T07:50:19.268Z,3.60
2019-01-11T07:53:00.085Z,4.00
2019-01-11T07:55:41.238Z,3.60
2019-01-11T07:58:22.278Z,4.10
2019-01-11T08:01:03.257Z,4.10
2019-01-11T08:03:44.453Z,4.10
2019-01-11T08:06:26.001Z,3.90
2019-01-11T08:09:14.322Z,4.30
2019-01-11T08:12:03.267Z,4.20
2019-01-11T08:14:45.607Z,4.00
2019-01-11T08:17:25.953Z,4.30
2019-01-11T08:20:07.044Z,4.60
2019-01-11T08:22:48.319Z,4.10
2019-01-11T08:25:29.516Z,4.10
2019-01-11T08:28:12.264Z,4.30
2019-01-11T08:30:53.447Z,4.40
2019-01-11T08:33:34.387Z,4.20
2019-01-11T08:36:15.267Z,4.30
2019-01-11T08:38:56.811Z,4.30
2019-01-11T08:41:37.842Z,4.40
2019-01-11T08:44:19.503Z,4.50
2019-01-11T08:47:00.547Z,4.20
2019-01-11T08:49:42.276Z,4.40
2019-01-11T08:52:22.937Z,4.40
2019-01-11T08:55:03.896Z,4.30
2019-01-11T08:57:45.098Z,4.30
2019-01-11T09:00:26.629Z,4.30
2019-01-11T09:03:07.562Z,4.70
2019-01-11T09:05:48.365Z,4.40
2019-01-11T09:08:28.616Z,4.70
2019-01-11T09:11:09.735Z,4.30
2019-01-11T09:17:26.295Z,4.50
2019-01-11T09:20:14.743Z,4.30
2019-01-11T09:22:54.880Z,4.80
2019-01-11T09:25:35.233Z,4.90
2019-01-11T09:28:15.496Z,4.80
2019-01-11T09:30:55.633Z,4.80
2019-01-11T09:33:35.474Z,4.70
2019-01-11T09:36:15.242Z,4.90
2019-01-11T09:38:55.428Z,4.60
2019-01-11T09:41:35.843Z,4.80
2019-01-11T09:44:15.370Z,4.70
2019-01-11T09:46:55.780Z,4.90
2019-01-11T09:49:35.851Z,4.90
2019-01-11T09:52:15.751Z,4.90
2019-01-11T09:54:55.270Z,4.30
2019-01-11T09:57:35.496Z,4.60
2019-01-11T10:00:15.558Z,4.80
2019-01-11T10:03:01.969Z,4.50
2019-01-11T10:05:48.966Z,4.40
2019-01-11T10:08:31.082Z,4.80
2019-01-11T10:11:11.924Z,4.80
2019-01-11T10:13:53.171Z,4.90
2019-01-11T10:16:28.421Z,4.60
2019-01-11T10:19:21.148Z,5.00
2019-01-11T10:22:02.986Z,5.00
2019-01-11T10:24:44.246Z,5.00
2019-01-11T10:27:25.251Z,5.10
2019-01-11T10:30:06.242Z,5.40
2019-01-11T10:32:47.434Z,5.10
2019-01-11T10:35:20.439Z,5.00
2019-01-11T10:38:09.227Z,5.20
2019-01-11T10:40:43.947Z,5.10
2019-01-11T10:43:31.883Z,5.30
2019-01-11T10:46:40.647Z,5.40
2019-01-11T10:49:33.807Z,5.40
2019-01-11T10:52:16.156Z,5.60
2019-01-11T10:54:57.218Z,5.20
2019-01-11T10:57:38.253Z,5.30
2019-01-11T11:00:19.655Z,5.20
2019-01-11T11:03:01.615Z,5.70
2019-01-11T11:05:31.549Z,5.70
2019-01-11T11:08:20.339Z,5.70
2019-01-11T11:11:07.342Z,5.90
2019-01-11T11:13:50.444Z,5.90
2019-01-11T11:16:32.926Z,6.00
2019-01-11T11:19:14.171Z,5.70
2019-01-11T11:21:55.321Z,6.10
2019-01-11T11:24:43.219Z,6.30
2019-01-11T11:27:31.838Z,6.20
2019-01-11T11:30:11.411Z,6.40
2019-01-11T11:32:58.365Z,6.00
2019-01-11T11:38:22.305Z,6.60
2019-01-11T11:41:05.510Z,6.60
2019-01-11T11:43:33.642Z,6.10
2019-01-11T11:46:27.516Z,6.40
2019-01-11T11:49:10.033Z,6.70
2019-01-11T11:51:51.722Z,6.20
2019-01-11T11:54:32.875Z,6.40
2019-01-11T11:57:13.908Z,6.50
2019-01-11T11:59:54.683Z,6.00
2019-01-11T12:02:39.875Z,6.60
2019-01-11T12:05:26.347Z,6.60
2019-01-11T12:08:07.013Z,6.70
2019-01-11T12:10:48.014Z,6.60
2019-01-11T12:13:29.081Z,6.60
2019-01-11T12:16:10.080Z,7.00
2019-01-11T12:18:51.071Z,6.50
2019-01-11T12:21:39.304Z,6.50
2019-01-11T12:24:26.011Z,6.70
2019-01-11T12:27:06.607Z,7.00
2019-01-11T12:29:46.239Z,6.70
2019-01-11T12:32:26.111Z,6.60
2019-01-11T12:35:13.132Z,6.90
2019-01-11T12:37:59.945Z,6.80
2019-01-11T12:40:40.280Z,6.50
2019-01-11T12:43:20.174Z,7.20
2019-01-11T12:46:00.217Z,6.70
2019-01-11T12:48:40.303Z,6.50
2019-01-11T12:51:20.327Z,7.10
2019-01-11T12:54:07.150Z,7.00
2019-01-11T12:56:53.871Z,7.10
2019-01-11T12:59:33.627Z,6.80
2019-01-11T13:02:13.490Z,6.80
2019-01-11T13:04:54.078Z,7.10
2019-01-11T13:07:33.666Z,7.00
2019-01-11T13:10:13.997Z,7.20
2019-01-11T13:12:54.415Z,7.00
2019-01-11T13:15:33.970Z,7.40
2019-01-11T13:23:53.904Z,7.20
2019-01-11T13:26:41.034Z,7.20
2019-01-11T13:32:19.240Z,7.40
2019-01-11T13:34:59.283Z,7.30
2019-01-11T13:37:40.404Z,7.40
2019-01-11T13:40:20.695Z,7.50
2019-01-11T13:43:00.310Z,7.40
2019-01-11T13:45:40.696Z,7.30
2019-01-11T13:48:20.314Z,7.70
2019-01-11T13:51:00.399Z,7.40
2019-01-11T13:53:40.829Z,7.50
2019-01-11T13:56:20.564Z,7.50
2019-01-11T13:59:00.930Z,7.10
2019-01-11T14:01:40.916Z,7.60
2019-01-11T14:04:20.930Z,7.60
2019-01-11T14:07:01.084Z,7.60
2019-01-11T14:09:40.941Z,7.60
2019-01-11T14:12:20.965Z,7.40
2019-01-11T14:14:52.349Z,7.60
2019-01-11T14:17:39.540Z,7.70
2019-01-11T14:20:26.836Z,8.10
2019-01-11T14:23:13.546Z,7.80
2019-01-11T14:25:53.178Z,7.80
2019-01-11T14:28:33.319Z,8.00
2019-01-11T14:31:13.730Z,7.60
2019-01-11T14:33:54.114Z,7.80
2019-01-11T14:36:34.851Z,8.10
2019-01-11T14:39:14.612Z,8.10
2019-01-11T14:41:55.120Z,7.70
2019-01-11T14:44:35.015Z,8.00
2019-01-11T14:47:14.817Z,8.00
2019-01-11T14:49:55.143Z,8.20
2019-01-11T14:52:35.495Z,8.10
2019-01-11T14:55:15.051Z,7.90
2019-01-11T14:57:55.499Z,8.10
2019-01-11T15:00:55.464Z,8.20
2019-01-11T15:03:20.037Z,8.10
2019-01-11T15:05:59.860Z,8.10
2019-01-11T15:08:39.694Z,7.60
2019-01-11T15:11:19.947Z,8.10
2019-01-11T15:13:59.899Z,8.40
2019-01-11T15:16:39.619Z,7.80
2019-01-11T15:19:20.108Z,8.10
2019-01-11T15:21:50.627Z,8.10
2019-01-11T15:24:39.370Z,7.80
2019-01-11T15:27:26.551Z,7.90
2019-01-11T15:30:13.762Z,8.10
2019-01-11T15:32:53.747Z,8.10
2019-01-11T15:35:33.700Z,7.90
2019-01-11T15:38:14.012Z,8.00
2019-01-11T15:40:46.866Z,8.00
2019-01-11T15:43:35.331Z,8.00
2019-01-11T15:46:15.348Z,8.00
2019-01-11T15:48:56.124Z,8.00
2019-01-11T15:51:28.325Z,8.20
2019-01-11T15:54:16.308Z,8.20
2019-01-11T15:56:48.421Z,7.80
2019-01-11T15:59:49.972Z,8.10
2019-01-11T16:05:58.450Z,8.10
2019-01-11T16:08:39.594Z,8.10
2019-01-11T16:11:20.425Z,8.20
2019-01-11T16:14:00.256Z,8.30
2019-01-11T16:16:43.270Z,8.10
2019-01-11T16:19:25.135Z,8.00
2019-01-11T16:22:05.351Z,8.10
2019-01-11T16:24:45.290Z,8.20
2019-01-11T16:27:25.700Z,8.10
2019-01-11T16:30:06.259Z,8.20
2019-01-11T16:32:45.935Z,8.20
2019-01-11T16:35:27.313Z,8.20
2019-01-11T16:38:08.134Z,8.20
2019-01-11T16:40:49.460Z,8.40
2019-01-11T16:43:30.640Z,8.10
2019-01-11T16:46:11.903Z,8.20
2019-01-11T16:48:52.522Z,8.10
2019-01-11T16:51:33.731Z,8.10
2019-01-11T16:54:13.528Z,8.30
2019-01-11T16:56:53.605Z,8.10
2019-01-11T16:59:33.752Z,8.50
2019-01-11T17:02:13.128Z,8.40
2019-01-11T17:04:54.287Z,8.40
2019-01-11T17:10:13.412Z,8.50
2019-01-11T17:13:02.157Z,8.30
2019-01-11T17:15:43.807Z,8.40
2019-01-11T17:18:29.366Z,8.20
2019-01-11T17:21:10.177Z,8.10
2019-01-11T17:23:50.378Z,8.60
2019-01-11T17:26:30.398Z,8.30
2019-01-11T17:29:10.524Z,8.60
2019-01-11T17:31:38.198Z,8.40
2019-01-11T17:37:30.839Z,8.40
2019-01-11T17:40:12.293Z,8.50
2019-01-11T17:42:53.142Z,8.10
2019-01-11T17:45:34.212Z,8.20
2019-01-11T17:48:18.095Z,8.50
2019-01-11T17:50:58.519Z,8.30
2019-01-11T17:56:34.535Z,8.20
2019-01-11T17:59:05.230Z,8.50
2019-01-11T18:01:54.671Z,8.30
2019-01-11T18:04:36.763Z,8.20
2019-01-11T18:07:18.225Z,8.30
2019-01-11T18:09:58.830Z,8.20
2019-01-11T18:12:40.688Z,8.20
2019-01-11T18:15:22.184Z,8.20
2019-01-11T18:18:03.317Z,8.30
2019-01-11T18:20:43.237Z,8.30
2019-01-11T18:23:23.421Z,8.40
2019-01-11T18:26:03.264Z,8.00
2019-01-11T18:28:42.795Z,7.70
2019-01-11T18:31:22.941Z,8.10
2019-01-11T18:34:03.169Z,7.90
2019-01-11T18:36:44.162Z,8.00
2019-01-11T18:39:25.355Z,8.10
2019-01-11T18:42:06.600Z,8.10
2019-01-11T18:44:47.745Z,8.00
2019-01-11T18:47:29.754Z,7.80
2019-01-11T18:50:10.955Z,7.80
2019-01-11T18:52:52.128Z,8.10
2019-01-11T18:55:32.196Z,8.10
2019-01-11T18:58:12.501Z,8.30
2019-01-11T19:00:52.572Z,7.90
2019-01-11T19:03:32.771Z,8.10
2019-01-11T19:06:12.924Z,8.20
2019-01-11T19:08:52.803Z,8.30
2019-01-11T19:11:21.014Z,7.90
2019-01-11T19:14:09.597Z,8.20
2019-01-11T19:16:51.355Z,8.10
2019-01-11T19:19:32.515Z,8.10
2019-01-11T19:22:13.611Z,7.90
2019-01-11T19:24:54.574Z,7.90
2019-01-11T19:27:35.651Z,7.90
2019-01-11T19:30:16.749Z,8.00
2019-01-11T19:32:56.846Z,8.00
2019-01-11T19:35:37.081Z,8.00
2019-01-11T19:38:17.050Z,8.00
2019-01-11T19:40:57.091Z,7.60
2019-01-11T19:43:38.208Z,8.10
2019-01-11T19:46:06.774Z,7.80
2019-01-11T19:48:35.765Z,8.10
2019-01-11T19:51:17.094Z,8.10
2019-01-11T19:53:58.442Z,8.10
2019-01-11T19:56:41.931Z,8.10
2019-01-11T19:59:22.784Z,8.00
2019-01-11T20:02:04.000Z,8.00
2019-01-11T20:04:45.239Z,7.90
2019-01-11T20:07:26.336Z,8.10
2019-01-11T20:10:11.179Z,8.40
2019-01-11T20:12:51.562Z,8.00
2019-01-11T20:15:31.619Z,7.80
2019-01-11T20:18:11.694Z,8.00
2019-01-11T20:20:39.930Z,7.80
2019-01-11T20:23:34.868Z,7.90
2019-01-11T20:26:29.897Z,8.00
2019-01-11T20:29:11.199Z,7.90
2019-01-11T20:31:51.956Z,8.30
2019-01-11T20:34:32.940Z,8.10
2019-01-11T20:37:12.816Z,8.30
2019-01-11T20:39:52.887Z,8.10
2019-01-11T20:42:21.348Z,7.60
2019-01-11T20:45:08.908Z,8.00
2019-01-11T20:47:49.166Z,8.00
2019-01-11T20:50:29.316Z,7.70
2019-01-11T20:53:09.250Z,8.00
2019-01-11T20:55:50.430Z,7.60
2019-01-11T20:58:30.793Z,7.90
2019-01-11T21:01:40.200Z,8.00
2019-01-11T21:04:28.823Z,8.00
2019-01-11T21:07:09.335Z,7.90
2019-01-11T21:09:49.170Z,8.00
2019-01-11T21:12:29.270Z,7.80
2019-01-11T21:15:08.968Z,8.20
2019-01-11T21:17:49.240Z,8.10
2019-01-11T21:20:26.368Z,8.10
2019-01-11T21:26:14.335Z,8.00
2019-01-11T21:28:56.971Z,8.10
2019-01-11T21:31:20.531Z,8.00
2019-01-11T21:34:09.754Z,8.00
2019-01-11T21:36:39.777Z,7.90
2019-01-11T21:42:19.198Z,7.80
2019-01-11T21:44:58.447Z,7.90
2019-01-11T21:47:39.991Z,7.90
2019-01-11T21:50:21.085Z,8.10
2019-01-11T21:53:01.996Z,7.90
2019-01-11T21:55:32.345Z,8.20
2019-01-11T21:58:21.704Z,7.70
2019-01-11T22:01:03.340Z,7.80
2019-01-11T22:03:44.454Z,7.70
2019-01-11T22:06:25.227Z,7.80
2019-01-11T22:09:05.049Z,7.70
2019-01-11T22:11:46.711Z,7.50
2019-01-11T22:14:27.048Z,7.70
2019-01-11T22:17:07.250Z,7.80
2019-01-11T22:19:50.600Z,7.90
2019-01-11T22:22:31.902Z,8.20
2019-01-11T22:25:12.987Z,8.10
2019-01-11T22:27:53.836Z,8.10
2019-01-11T22:30:35.327Z,8.00
2019-01-11T22:33:16.314Z,7.90
2019-01-11T22:35:57.140Z,7.90
2019-01-11T22:38:27.176Z,7.40
2019-01-11T22:41:14.558Z,7.80
2019-01-11T22:43:46.324Z,7.70
2019-01-11T22:46:33.676Z,7.70
2019-01-11T22:49:14.637Z,8.00
2019-01-11T22:51:55.608Z,7.50
2019-01-11T22:54:37.311Z,7.60
2019-01-11T22:57:18.330Z,7.60
2019-01-11T23:00:00.275Z,7.70
2019-01-11T23:02:41.378Z,7.60
2019-01-11T23:05:22.564Z,7.40
2019-01-11T23:08:03.606Z,7.70
2019-01-11T23:10:44.149Z,7.70
2019-01-11T23:13:25.996Z,7.60
2019-01-11T23:16:07.334Z,7.60
2019-01-11T23:18:52.318Z,7.70
2019-01-11T23:21:33.208Z,7.70
2019-01-11T23:24:17.550Z,7.70
2019-01-11T23:26:57.262Z,8.00
2019-01-11T23:29:37.431Z,7.40
2019-01-11T23:32:16.995Z,7.90
2019-01-11T23:34:57.431Z,7.80
2019-01-11T23:37:37.522Z,7.60
2019-01-11T23:40:17.329Z,7.50
2019-01-11T23:42:58.119Z,7.90
2019-01-11T23:45:39.098Z,8.10
2019-01-11T23:48:23.143Z,8.00
2019-01-11T23:51:04.478Z,7.70
2019-01-11T23:53:45.956Z,7.60
2019-01-11T23:56:26.808Z,7.60
2019-01-11T23:59:09.326Z,7.90
